sensor_id;sensor_type;location;lat;lon;timestamp;P1;durP1;ratioP1;P2;durP2;ratioP2
8104;SDS011;4095;48.942;9.104;2023-07-09T00:01:16;6.55;;;3.85;;
8104;SDS011;4095;48.942;9.104;2023-07-09T00:03:44;5.53;;;3.80;;
8104;SDS011;4095;48.942;9.104;2023-07-09T00:06:11;5.07;;;3.40;;
8104;SDS011;4095;48.942;9.104;2023-07-09T00:08:38;4.83;;;4.07;;
8104;SDS011;4095;48.942;9.104;2023-07-09T00:11:08;6.70;;;4.03;;
8104;SDS011;4095;48.942;9.104;2023-07-09T00:13:34;8.77;;;4.37;;
8104;SDS011;4095;48.942;9.104;2023-07-09T00:16:00;6.70;;;4.07;;
8104;SDS011;4095;48.942;9.104;2023-07-09T00:18:32;6.80;;;4.13;;
8104;SDS011;4095;48.942;9.104;2023-07-09T00:20:59;5.97;;;3.80;;
8104;SDS011;4095;48.942;9.104;2023-07-09T00:23:26;5.47;;;3.70;;
8104;SDS011;4095;48.942;9.104;2023-07-09T00:25:52;8.10;;;4.10;;
8104;SDS011;4095;48.942;9.104;2023-07-09T00:28:18;6.23;;;4.40;;
8104;SDS011;4095;48.942;9.104;2023-07-09T00:30:45;6.60;;;4.07;;
8104;SDS011;4095;48.942;9.104;2023-07-09T00:33:11;7.50;;;4.60;;
8104;SDS011;4095;48.942;9.104;2023-07-09T00:35:44;7.03;;;3.97;;
8104;SDS011;4095;48.942;9.104;2023-07-09T00:38:15;6.27;;;3.90;;
8104;SDS011;4095;48.942;9.104;2023-07-09T00:43:30;6.93;;;4.50;;
8104;SDS011;4095;48.942;9.104;2023-07-09T00:48:44;4.57;;;3.80;;
8104;SDS011;4095;48.942;9.104;2023-07-09T00:51:15;7.43;;;3.73;;
8104;SDS011;4095;48.942;9.104;2023-07-09T00:53:45;5.10;;;3.80;;
8104;SDS011;4095;48.942;9.104;2023-07-09T00:56:13;4.93;;;3.90;;
8104;SDS011;4095;48.942;9.104;2023-07-09T00:58:45;7.27;;;3.73;;
8104;SDS011;4095;48.942;9.104;2023-07-09T01:01:13;7.83;;;3.80;;
8104;SDS011;4095;48.942;9.104;2023-07-09T01:03:44;5.70;;;3.80;;
8104;SDS011;4095;48.942;9.104;2023-07-09T01:06:12;7.27;;;3.97;;
8104;SDS011;4095;48.942;9.104;2023-07-09T01:08:40;5.90;;;3.80;;
8104;SDS011;4095;48.942;9.104;2023-07-09T01:11:20;7.00;;;3.70;;
8104;SDS011;4095;48.942;9.104;2023-07-09T01:14:06;5.43;;;3.90;;
8104;SDS011;4095;48.942;9.104;2023-07-09T01:16:35;5.33;;;3.67;;
8104;SDS011;4095;48.942;9.104;2023-07-09T01:19:04;7.20;;;4.50;;
8104;SDS011;4095;48.942;9.104;2023-07-09T01:21:30;5.70;;;3.90;;
8104;SDS011;4095;48.942;9.104;2023-07-09T01:23:57;6.27;;;4.17;;
8104;SDS011;4095;48.942;9.104;2023-07-09T01:26:23;7.27;;;4.23;;
8104;SDS011;4095;48.942;9.104;2023-07-09T01:28:52;7.67;;;3.90;;
8104;SDS011;4095;48.942;9.104;2023-07-09T01:31:18;6.17;;;4.10;;
8104;SDS011;4095;48.942;9.104;2023-07-09T01:33:45;6.43;;;4.13;;
8104;SDS011;4095;48.942;9.104;2023-07-09T01:36:12;8.23;;;4.33;;
8104;SDS011;4095;48.942;9.104;2023-07-09T01:38:40;7.03;;;4.57;;
8104;SDS011;4095;48.942;9.104;2023-07-09T01:41:07;6.10;;;3.93;;
8104;SDS011;4095;48.942;9.104;2023-07-09T01:43:32;5.23;;;4.03;;
8104;SDS011;4095;48.942;9.104;2023-07-09T01:45:58;5.20;;;3.87;;
8104;SDS011;4095;48.942;9.104;2023-07-09T01:48:24;5.50;;;4.17;;
8104;SDS011;4095;48.942;9.104;2023-07-09T01:50:51;5.43;;;4.10;;
8104;SDS011;4095;48.942;9.104;2023-07-09T01:53:19;6.23;;;3.90;;
8104;SDS011;4095;48.942;9.104;2023-07-09T01:55:50;6.43;;;3.90;;
8104;SDS011;4095;48.942;9.104;2023-07-09T01:58:16;5.90;;;4.03;;
8104;SDS011;4095;48.942;9.104;2023-07-09T02:00:42;5.13;;;4.20;;
8104;SDS011;4095;48.942;9.104;2023-07-09T02:03:10;5.80;;;4.07;;
8104;SDS011;4095;48.942;9.104;2023-07-09T02:05:36;5.47;;;4.07;;
8104;SDS011;4095;48.942;9.104;2023-07-09T02:08:02;6.53;;;4.47;;
8104;SDS011;4095;48.942;9.104;2023-07-09T02:10:28;6.03;;;4.20;;
8104;SDS011;4095;48.942;9.104;2023-07-09T02:12:54;6.67;;;4.10;;
8104;SDS011;4095;48.942;9.104;2023-07-09T02:15:19;6.87;;;4.37;;
8104;SDS011;4095;48.942;9.104;2023-07-09T02:17:45;5.97;;;3.87;;
8104;SDS011;4095;48.942;9.104;2023-07-09T02:20:11;7.87;;;4.50;;
8104;SDS011;4095;48.942;9.104;2023-07-09T02:22:38;5.23;;;4.17;;
8104;SDS011;4095;48.942;9.104;2023-07-09T02:25:04;4.87;;;3.83;;
8104;SDS011;4095;48.942;9.104;2023-07-09T02:27:31;5.27;;;4.20;;
8104;SDS011;4095;48.942;9.104;2023-07-09T02:29:57;8.47;;;4.43;;
8104;SDS011;4095;48.942;9.104;2023-07-09T02:32:24;5.03;;;4.30;;
8104;SDS011;4095;48.942;9.104;2023-07-09T02:34:54;6.70;;;4.47;;
8104;SDS011;4095;48.942;9.104;2023-07-09T02:37:20;8.03;;;4.40;;
8104;SDS011;4095;48.942;9.104;2023-07-09T02:39:48;9.10;;;4.90;;
8104;SDS011;4095;48.942;9.104;2023-07-09T02:42:15;6.50;;;4.43;;
8104;SDS011;4095;48.942;9.104;2023-07-09T02:44:42;7.47;;;4.50;;
8104;SDS011;4095;48.942;9.104;2023-07-09T02:47:09;8.57;;;5.17;;
8104;SDS011;4095;48.942;9.104;2023-07-09T02:49:35;8.63;;;4.80;;
8104;SDS011;4095;48.942;9.104;2023-07-09T02:52:01;6.97;;;4.33;;
8104;SDS011;4095;48.942;9.104;2023-07-09T02:54:26;8.17;;;4.67;;
8104;SDS011;4095;48.942;9.104;2023-07-09T02:56:52;5.87;;;4.60;;
8104;SDS011;4095;48.942;9.104;2023-07-09T02:59:18;6.93;;;4.53;;
8104;SDS011;4095;48.942;9.104;2023-07-09T03:01:44;6.00;;;4.30;;
8104;SDS011;4095;48.942;9.104;2023-07-09T03:04:12;6.10;;;4.43;;
8104;SDS011;4095;48.942;9.104;2023-07-09T03:06:38;6.40;;;4.70;;
8104;SDS011;4095;48.942;9.104;2023-07-09T03:09:04;5.87;;;4.50;;
8104;SDS011;4095;48.942;9.104;2023-07-09T03:11:31;7.83;;;4.53;;
8104;SDS011;4095;48.942;9.104;2023-07-09T03:13:58;6.63;;;4.20;;
8104;SDS011;4095;48.942;9.104;2023-07-09T03:16:26;5.33;;;4.30;;
8104;SDS011;4095;48.942;9.104;2023-07-09T03:18:53;6.23;;;4.43;;
8104;SDS011;4095;48.942;9.104;2023-07-09T03:21:19;5.37;;;4.40;;
8104;SDS011;4095;48.942;9.104;2023-07-09T03:23:45;5.00;;;4.07;;
8104;SDS011;4095;48.942;9.104;2023-07-09T03:26:11;6.87;;;4.13;;
8104;SDS011;4095;48.942;9.104;2023-07-09T03:28:37;6.17;;;4.57;;
8104;SDS011;4095;48.942;9.104;2023-07-09T03:31:03;5.90;;;4.40;;
8104;SDS011;4095;48.942;9.104;2023-07-09T03:33:29;7.17;;;4.70;;
8104;SDS011;4095;48.942;9.104;2023-07-09T03:35:54;5.33;;;4.57;;
8104;SDS011;4095;48.942;9.104;2023-07-09T03:38:20;6.40;;;4.63;;
8104;SDS011;4095;48.942;9.104;2023-07-09T03:40:49;6.00;;;4.93;;
8104;SDS011;4095;48.942;9.104;2023-07-09T03:43:18;6.00;;;4.53;;
8104;SDS011;4095;48.942;9.104;2023-07-09T03:45:44;6.37;;;4.93;;
8104;SDS011;4095;48.942;9.104;2023-07-09T03:48:11;7.73;;;5.30;;
8104;SDS011;4095;48.942;9.104;2023-07-09T03:50:38;5.70;;;4.43;;
8104;SDS011;4095;48.942;9.104;2023-07-09T03:53:03;6.57;;;4.90;;
8104;SDS011;4095;48.942;9.104;2023-07-09T03:55:30;7.17;;;5.10;;
8104;SDS011;4095;48.942;9.104;2023-07-09T03:57:56;7.93;;;5.23;;
8104;SDS011;4095;48.942;9.104;2023-07-09T04:00:22;8.03;;;5.20;;
8104;SDS011;4095;48.942;9.104;2023-07-09T04:02:49;8.07;;;5.33;;
8104;SDS011;4095;48.942;9.104;2023-07-09T04:05:16;8.57;;;5.10;;
8104;SDS011;4095;48.942;9.104;2023-07-09T04:07:42;7.07;;;5.30;;
8104;SDS011;4095;48.942;9.104;2023-07-09T04:10:09;6.57;;;4.80;;
8104;SDS011;4095;48.942;9.104;2023-07-09T04:12:35;7.83;;;4.77;;
8104;SDS011;4095;48.942;9.104;2023-07-09T04:15:01;7.00;;;5.20;;
8104;SDS011;4095;48.942;9.104;2023-07-09T04:17:28;6.80;;;5.10;;
8104;SDS011;4095;48.942;9.104;2023-07-09T04:19:54;8.03;;;5.33;;
8104;SDS011;4095;48.942;9.104;2023-07-09T04:22:19;10.80;;;5.43;;
8104;SDS011;4095;48.942;9.104;2023-07-09T04:24:46;10.47;;;5.20;;
8104;SDS011;4095;48.942;9.104;2023-07-09T04:27:12;6.30;;;5.00;;
8104;SDS011;4095;48.942;9.104;2023-07-09T04:29:39;6.03;;;5.03;;
8104;SDS011;4095;48.942;9.104;2023-07-09T04:32:05;6.87;;;4.70;;
8104;SDS011;4095;48.942;9.104;2023-07-09T04:34:33;7.77;;;4.80;;
8104;SDS011;4095;48.942;9.104;2023-07-09T04:36:58;7.23;;;5.00;;
8104;SDS011;4095;48.942;9.104;2023-07-09T04:39:24;6.63;;;4.50;;
8104;SDS011;4095;48.942;9.104;2023-07-09T04:41:50;7.33;;;5.10;;
8104;SDS011;4095;48.942;9.104;2023-07-09T04:44:15;6.20;;;4.63;;
8104;SDS011;4095;48.942;9.104;2023-07-09T04:46:41;6.87;;;4.83;;
8104;SDS011;4095;48.942;9.104;2023-07-09T04:49:07;8.63;;;4.70;;
8104;SDS011;4095;48.942;9.104;2023-07-09T04:51:33;6.53;;;4.13;;
8104;SDS011;4095;48.942;9.104;2023-07-09T04:53:59;9.93;;;4.73;;
8104;SDS011;4095;48.942;9.104;2023-07-09T04:56:29;4.93;;;4.03;;
8104;SDS011;4095;48.942;9.104;2023-07-09T04:58:54;5.57;;;4.50;;
8104;SDS011;4095;48.942;9.104;2023-07-09T05:01:20;7.63;;;4.53;;
8104;SDS011;4095;48.942;9.104;2023-07-09T05:03:46;5.87;;;4.90;;
8104;SDS011;4095;48.942;9.104;2023-07-09T05:06:11;6.77;;;4.37;;
8104;SDS011;4095;48.942;9.104;2023-07-09T05:08:39;7.03;;;4.53;;
8104;SDS011;4095;48.942;9.104;2023-07-09T05:11:06;6.30;;;4.33;;
8104;SDS011;4095;48.942;9.104;2023-07-09T05:13:31;5.27;;;4.47;;
8104;SDS011;4095;48.942;9.104;2023-07-09T05:15:57;6.47;;;4.60;;
8104;SDS011;4095;48.942;9.104;2023-07-09T05:18:22;5.13;;;4.60;;
8104;SDS011;4095;48.942;9.104;2023-07-09T05:20:49;6.83;;;4.80;;
8104;SDS011;4095;48.942;9.104;2023-07-09T05:23:14;6.23;;;4.50;;
8104;SDS011;4095;48.942;9.104;2023-07-09T05:25:40;6.23;;;4.60;;
8104;SDS011;4095;48.942;9.104;2023-07-09T05:28:06;5.20;;;4.50;;
8104;SDS011;4095;48.942;9.104;2023-07-09T05:30:31;5.33;;;4.83;;
8104;SDS011;4095;48.942;9.104;2023-07-09T05:32:57;5.70;;;4.70;;
8104;SDS011;4095;48.942;9.104;2023-07-09T05:35:24;7.40;;;4.60;;
8104;SDS011;4095;48.942;9.104;2023-07-09T05:37:51;5.60;;;4.33;;
8104;SDS011;4095;48.942;9.104;2023-07-09T05:40:18;8.80;;;4.50;;
8104;SDS011;4095;48.942;9.104;2023-07-09T05:42:43;7.20;;;4.63;;
8104;SDS011;4095;48.942;9.104;2023-07-09T05:45:09;7.80;;;4.57;;
8104;SDS011;4095;48.942;9.104;2023-07-09T05:47:35;5.93;;;4.60;;
8104;SDS011;4095;48.942;9.104;2023-07-09T05:50:01;7.53;;;4.63;;
8104;SDS011;4095;48.942;9.104;2023-07-09T05:52:27;5.70;;;4.50;;
8104;SDS011;4095;48.942;9.104;2023-07-09T05:54:54;7.68;;;4.75;;
8104;SDS011;4095;48.942;9.104;2023-07-09T05:57:20;7.68;;;4.75;;
8104;SDS011;4095;48.942;9.104;2023-07-09T05:59:46;6.07;;;4.60;;
8104;SDS011;4095;48.942;9.104;2023-07-09T06:02:18;6.63;;;4.10;;
8104;SDS011;4095;48.942;9.104;2023-07-09T06:04:44;8.10;;;4.63;;
8104;SDS011;4095;48.942;9.104;2023-07-09T06:07:11;5.82;;;4.40;;
8104;SDS011;4095;48.942;9.104;2023-07-09T06:09:38;6.28;;;4.53;;
8104;SDS011;4095;48.942;9.104;2023-07-09T06:12:04;6.45;;;4.57;;
8104;SDS011;4095;48.942;9.104;2023-07-09T06:14:31;6.20;;;4.40;;
8104;SDS011;4095;48.942;9.104;2023-07-09T06:16:57;6.10;;;4.82;;
8104;SDS011;4095;48.942;9.104;2023-07-09T06:19:23;5.88;;;4.50;;
8104;SDS011;4095;48.942;9.104;2023-07-09T06:21:48;6.82;;;4.43;;
8104;SDS011;4095;48.942;9.104;2023-07-09T06:24:14;5.03;;;4.50;;
8104;SDS011;4095;48.942;9.104;2023-07-09T06:26:39;6.07;;;4.32;;
8104;SDS011;4095;48.942;9.104;2023-07-09T06:29:05;6.38;;;4.95;;
8104;SDS011;4095;48.942;9.104;2023-07-09T06:31:31;7.28;;;4.50;;
8104;SDS011;4095;48.942;9.104;2023-07-09T06:33:56;6.70;;;4.20;;
8104;SDS011;4095;48.942;9.104;2023-07-09T06:36:22;4.80;;;4.30;;
8104;SDS011;4095;48.942;9.104;2023-07-09T06:38:48;5.22;;;4.63;;
8104;SDS011;4095;48.942;9.104;2023-07-09T06:41:13;6.78;;;4.30;;
8104;SDS011;4095;48.942;9.104;2023-07-09T06:43:40;6.90;;;4.50;;
8104;SDS011;4095;48.942;9.104;2023-07-09T06:46:06;4.80;;;4.20;;
8104;SDS011;4095;48.942;9.104;2023-07-09T06:48:34;4.90;;;4.10;;
8104;SDS011;4095;48.942;9.104;2023-07-09T06:51:00;4.93;;;3.90;;
8104;SDS011;4095;48.942;9.104;2023-07-09T06:53:27;5.70;;;4.00;;
8104;SDS011;4095;48.942;9.104;2023-07-09T06:55:53;5.50;;;4.25;;
8104;SDS011;4095;48.942;9.104;2023-07-09T06:58:27;5.00;;;4.22;;
8104;SDS011;4095;48.942;9.104;2023-07-09T07:00:56;4.30;;;3.58;;
8104;SDS011;4095;48.942;9.104;2023-07-09T07:03:22;6.30;;;3.95;;
8104;SDS011;4095;48.942;9.104;2023-07-09T07:05:49;7.07;;;4.45;;
8104;SDS011;4095;48.942;9.104;2023-07-09T07:08:19;5.97;;;4.10;;
8104;SDS011;4095;48.942;9.104;2023-07-09T07:10:47;5.75;;;4.20;;
8104;SDS011;4095;48.942;9.104;2023-07-09T07:13:14;5.75;;;4.22;;
8104;SDS011;4095;48.942;9.104;2023-07-09T07:15:39;4.90;;;4.40;;
8104;SDS011;4095;48.942;9.104;2023-07-09T07:18:05;5.40;;;3.95;;
8104;SDS011;4095;48.942;9.104;2023-07-09T07:20:32;5.15;;;3.90;;
8104;SDS011;4095;48.942;9.104;2023-07-09T07:22:58;5.40;;;4.10;;
8104;SDS011;4095;48.942;9.104;2023-07-09T07:25:25;5.40;;;4.07;;
8104;SDS011;4095;48.942;9.104;2023-07-09T07:27:50;7.65;;;4.07;;
8104;SDS011;4095;48.942;9.104;2023-07-09T07:30:16;7.72;;;4.13;;
8104;SDS011;4095;48.942;9.104;2023-07-09T07:32:44;6.13;;;4.30;;
8104;SDS011;4095;48.942;9.104;2023-07-09T07:35:10;4.90;;;3.90;;
8104;SDS011;4095;48.942;9.104;2023-07-09T07:37:36;4.97;;;4.03;;
8104;SDS011;4095;48.942;9.104;2023-07-09T07:40:02;6.78;;;4.07;;
8104;SDS011;4095;48.942;9.104;2023-07-09T07:42:29;4.82;;;3.85;;
8104;SDS011;4095;48.942;9.104;2023-07-09T07:44:55;6.07;;;4.07;;
8104;SDS011;4095;48.942;9.104;2023-07-09T07:47:21;5.90;;;4.30;;
8104;SDS011;4095;48.942;9.104;2023-07-09T07:49:46;4.28;;;3.40;;
8104;SDS011;4095;48.942;9.104;2023-07-09T07:52:12;4.75;;;3.72;;
8104;SDS011;4095;48.942;9.104;2023-07-09T07:54:38;5.07;;;3.65;;
8104;SDS011;4095;48.942;9.104;2023-07-09T07:57:03;6.57;;;4.03;;
8104;SDS011;4095;48.942;9.104;2023-07-09T07:59:29;5.60;;;3.97;;
8104;SDS011;4095;48.942;9.104;2023-07-09T08:01:57;6.82;;;4.05;;
8104;SDS011;4095;48.942;9.104;2023-07-09T08:04:23;4.80;;;4.15;;
8104;SDS011;4095;48.942;9.104;2023-07-09T08:06:49;4.78;;;3.65;;
8104;SDS011;4095;48.942;9.104;2023-07-09T08:09:15;6.68;;;4.10;;
8104;SDS011;4095;48.942;9.104;2023-07-09T08:11:41;4.90;;;3.90;;
8104;SDS011;4095;48.942;9.104;2023-07-09T08:14:06;4.03;;;3.47;;
8104;SDS011;4095;48.942;9.104;2023-07-09T08:16:32;6.20;;;3.83;;
8104;SDS011;4095;48.942;9.104;2023-07-09T08:18:58;4.20;;;3.67;;
8104;SDS011;4095;48.942;9.104;2023-07-09T08:21:23;5.85;;;3.42;;
8104;SDS011;4095;48.942;9.104;2023-07-09T08:23:49;7.00;;;4.38;;
8104;SDS011;4095;48.942;9.104;2023-07-09T08:26:14;4.47;;;3.80;;
8104;SDS011;4095;48.942;9.104;2023-07-09T08:28:41;6.15;;;3.60;;
8104;SDS011;4095;48.942;9.104;2023-07-09T08:31:07;5.05;;;3.53;;
8104;SDS011;4095;48.942;9.104;2023-07-09T08:33:33;5.47;;;3.63;;
8104;SDS011;4095;48.942;9.104;2023-07-09T08:35:59;5.30;;;3.70;;
8104;SDS011;4095;48.942;9.104;2023-07-09T08:38:25;6.35;;;3.70;;
8104;SDS011;4095;48.942;9.104;2023-07-09T08:40:56;4.90;;;3.63;;
8104;SDS011;4095;48.942;9.104;2023-07-09T08:43:32;5.10;;;3.63;;
8104;SDS011;4095;48.942;9.104;2023-07-09T08:46:02;5.25;;;3.50;;
8104;SDS011;4095;48.942;9.104;2023-07-09T08:48:52;4.85;;;3.58;;
8104;SDS011;4095;48.942;9.104;2023-07-09T08:51:28;6.32;;;3.67;;
8104;SDS011;4095;48.942;9.104;2023-07-09T08:54:03;3.83;;;3.35;;
8104;SDS011;4095;48.942;9.104;2023-07-09T08:56:34;4.28;;;3.40;;
8104;SDS011;4095;48.942;9.104;2023-07-09T08:59:00;5.03;;;3.25;;
8104;SDS011;4095;48.942;9.104;2023-07-09T09:04:03;3.95;;;3.20;;
8104;SDS011;4095;48.942;9.104;2023-07-09T09:06:45;4.28;;;3.35;;
8104;SDS011;4095;48.942;9.104;2023-07-09T09:09:31;5.78;;;3.55;;
8104;SDS011;4095;48.942;9.104;2023-07-09T09:12:11;6.00;;;3.58;;
8104;SDS011;4095;48.942;9.104;2023-07-09T09:14:47;4.10;;;3.30;;
8104;SDS011;4095;48.942;9.104;2023-07-09T09:17:25;3.80;;;3.38;;
8104;SDS011;4095;48.942;9.104;2023-07-09T09:20:05;5.35;;;3.30;;
8104;SDS011;4095;48.942;9.104;2023-07-09T09:22:46;3.60;;;3.30;;
8104;SDS011;4095;48.942;9.104;2023-07-09T09:27:53;5.78;;;3.38;;
8104;SDS011;4095;48.942;9.104;2023-07-09T09:30:20;4.00;;;3.60;;
8104;SDS011;4095;48.942;9.104;2023-07-09T09:32:55;4.32;;;3.45;;
8104;SDS011;4095;48.942;9.104;2023-07-09T09:35:27;3.67;;;3.28;;
8104;SDS011;4095;48.942;9.104;2023-07-09T09:37:56;5.68;;;2.97;;
8104;SDS011;4095;48.942;9.104;2023-07-09T09:40:23;3.92;;;3.53;;
8104;SDS011;4095;48.942;9.104;2023-07-09T09:42:51;4.10;;;3.45;;
8104;SDS011;4095;48.942;9.104;2023-07-09T09:45:21;5.55;;;3.35;;
8104;SDS011;4095;48.942;9.104;2023-07-09T09:47:51;3.72;;;3.00;;
8104;SDS011;4095;48.942;9.104;2023-07-09T09:50:18;4.68;;;3.10;;
8104;SDS011;4095;48.942;9.104;2023-07-09T09:52:46;6.22;;;3.70;;
8104;SDS011;4095;48.942;9.104;2023-07-09T09:55:18;5.55;;;3.53;;
8104;SDS011;4095;48.942;9.104;2023-07-09T09:57:48;4.53;;;3.40;;
8104;SDS011;4095;48.942;9.104;2023-07-09T10:00:15;3.97;;;3.30;;
8104;SDS011;4095;48.942;9.104;2023-07-09T10:02:42;5.55;;;3.22;;
8104;SDS011;4095;48.942;9.104;2023-07-09T10:05:13;5.78;;;3.72;;
8104;SDS011;4095;48.942;9.104;2023-07-09T10:07:43;4.20;;;3.22;;
8104;SDS011;4095;48.942;9.104;2023-07-09T10:10:22;3.85;;;3.45;;
8104;SDS011;4095;48.942;9.104;2023-07-09T10:12:54;3.85;;;3.22;;
8104;SDS011;4095;48.942;9.104;2023-07-09T10:21:07;5.28;;;3.22;;
8104;SDS011;4095;48.942;9.104;2023-07-09T10:26:32;4.03;;;2.72;;
8104;SDS011;4095;48.942;9.104;2023-07-09T10:35:07;4.10;;;3.00;;
8104;SDS011;4095;48.942;9.104;2023-07-09T10:40:40;3.97;;;3.10;;
8104;SDS011;4095;48.942;9.104;2023-07-09T10:43:10;3.38;;;2.90;;
8104;SDS011;4095;48.942;9.104;2023-07-09T10:45:41;5.93;;;3.00;;
8104;SDS011;4095;48.942;9.104;2023-07-09T10:50:55;5.57;;;2.90;;
8104;SDS011;4095;48.942;9.104;2023-07-09T10:56:24;4.63;;;3.58;;
8104;SDS011;4095;48.942;9.104;2023-07-09T11:01:50;4.07;;;2.90;;
8104;SDS011;4095;48.942;9.104;2023-07-09T11:04:35;3.42;;;2.97;;
8104;SDS011;4095;48.942;9.104;2023-07-09T11:07:05;3.95;;;2.90;;
8104;SDS011;4095;48.942;9.104;2023-07-09T11:09:41;3.13;;;2.70;;
8104;SDS011;4095;48.942;9.104;2023-07-09T11:12:15;5.03;;;3.40;;
8104;SDS011;4095;48.942;9.104;2023-07-09T11:14:47;4.75;;;2.90;;
8104;SDS011;4095;48.942;9.104;2023-07-09T11:17:25;3.33;;;2.72;;
8104;SDS011;4095;48.942;9.104;2023-07-09T11:19:53;4.65;;;3.20;;
8104;SDS011;4095;48.942;9.104;2023-07-09T11:22:23;3.42;;;2.90;;
8104;SDS011;4095;48.942;9.104;2023-07-09T11:27:50;6.32;;;3.55;;
8104;SDS011;4095;48.942;9.104;2023-07-09T11:30:22;3.70;;;3.25;;
8104;SDS011;4095;48.942;9.104;2023-07-09T11:32:53;4.68;;;3.40;;
8104;SDS011;4095;48.942;9.104;2023-07-09T11:35:23;5.75;;;3.30;;
8104;SDS011;4095;48.942;9.104;2023-07-09T11:37:51;5.32;;;3.45;;
8104;SDS011;4095;48.942;9.104;2023-07-09T11:40:18;5.15;;;3.13;;
8104;SDS011;4095;48.942;9.104;2023-07-09T11:42:52;4.47;;;3.20;;
8104;SDS011;4095;48.942;9.104;2023-07-09T11:45:21;5.32;;;3.20;;
8104;SDS011;4095;48.942;9.104;2023-07-09T11:50:46;6.20;;;3.40;;
8104;SDS011;4095;48.942;9.104;2023-07-09T11:56:14;7.15;;;3.58;;
8104;SDS011;4095;48.942;9.104;2023-07-09T11:58:48;5.38;;;3.90;;
8104;SDS011;4095;48.942;9.104;2023-07-09T12:01:21;4.97;;;3.50;;
8104;SDS011;4095;48.942;9.104;2023-07-09T12:03:49;4.32;;;3.53;;
8104;SDS011;4095;48.942;9.104;2023-07-09T12:06:17;5.88;;;3.90;;
8104;SDS011;4095;48.942;9.104;2023-07-09T12:08:48;5.95;;;3.90;;
8104;SDS011;4095;48.942;9.104;2023-07-09T12:11:23;5.85;;;3.90;;
8104;SDS011;4095;48.942;9.104;2023-07-09T12:13:50;6.03;;;4.25;;
8104;SDS011;4095;48.942;9.104;2023-07-09T12:16:36;6.07;;;4.05;;
8104;SDS011;4095;48.942;9.104;2023-07-09T12:19:04;5.95;;;4.05;;
8104;SDS011;4095;48.942;9.104;2023-07-09T12:21:31;6.07;;;3.90;;
8104;SDS011;4095;48.942;9.104;2023-07-09T12:24:01;5.07;;;3.83;;
8104;SDS011;4095;48.942;9.104;2023-07-09T12:26:30;6.05;;;3.92;;
8104;SDS011;4095;48.942;9.104;2023-07-09T12:28:57;4.80;;;3.88;;
8104;SDS011;4095;48.942;9.104;2023-07-09T12:31:30;6.50;;;3.85;;
8104;SDS011;4095;48.942;9.104;2023-07-09T12:33:56;4.22;;;3.50;;
8104;SDS011;4095;48.942;9.104;2023-07-09T12:36:24;5.85;;;3.92;;
8104;SDS011;4095;48.942;9.104;2023-07-09T12:38:52;4.65;;;3.30;;
8104;SDS011;4095;48.942;9.104;2023-07-09T12:41:25;4.53;;;3.60;;
8104;SDS011;4095;48.942;9.104;2023-07-09T12:43:54;5.40;;;3.42;;
8104;SDS011;4095;48.942;9.104;2023-07-09T12:46:20;5.53;;;3.42;;
8104;SDS011;4095;48.942;9.104;2023-07-09T12:48:47;6.25;;;3.67;;
8104;SDS011;4095;48.942;9.104;2023-07-09T12:51:15;5.03;;;3.70;;
8104;SDS011;4095;48.942;9.104;2023-07-09T12:53:46;5.97;;;3.75;;
8104;SDS011;4095;48.942;9.104;2023-07-09T12:56:13;5.38;;;3.42;;
8104;SDS011;4095;48.942;9.104;2023-07-09T12:58:41;5.50;;;3.40;;
8104;SDS011;4095;48.942;9.104;2023-07-09T13:01:14;5.90;;;3.67;;
8104;SDS011;4095;48.942;9.104;2023-07-09T13:03:41;4.90;;;3.40;;
8104;SDS011;4095;48.942;9.104;2023-07-09T13:06:23;4.82;;;3.13;;
8104;SDS011;4095;48.942;9.104;2023-07-09T13:08:55;5.38;;;3.67;;
8104;SDS011;4095;48.942;9.104;2023-07-09T13:11:24;5.38;;;2.90;;
8104;SDS011;4095;48.942;9.104;2023-07-09T13:13:54;5.95;;;3.22;;
8104;SDS011;4095;48.942;9.104;2023-07-09T13:16:20;7.20;;;3.45;;
8104;SDS011;4095;48.942;9.104;2023-07-09T13:18:46;5.63;;;3.85;;
8104;SDS011;4095;48.942;9.104;2023-07-09T13:21:16;6.30;;;3.53;;
8104;SDS011;4095;48.942;9.104;2023-07-09T13:23:43;6.07;;;3.55;;
8104;SDS011;4095;48.942;9.104;2023-07-09T13:26:09;8.43;;;3.80;;
8104;SDS011;4095;48.942;9.104;2023-07-09T13:28:35;5.88;;;3.25;;
8104;SDS011;4095;48.942;9.104;2023-07-09T13:31:01;6.88;;;3.83;;
8104;SDS011;4095;48.942;9.104;2023-07-09T13:33:36;4.50;;;3.40;;
8104;SDS011;4095;48.942;9.104;2023-07-09T13:36:02;6.53;;;3.35;;
8104;SDS011;4095;48.942;9.104;2023-07-09T13:38:28;5.22;;;3.33;;
8104;SDS011;4095;48.942;9.104;2023-07-09T13:40:54;4.78;;;3.13;;
8104;SDS011;4095;48.942;9.104;2023-07-09T13:43:29;4.82;;;3.20;;
8104;SDS011;4095;48.942;9.104;2023-07-09T13:45:57;5.88;;;3.20;;
8104;SDS011;4095;48.942;9.104;2023-07-09T13:48:23;7.43;;;3.80;;
8104;SDS011;4095;48.942;9.104;2023-07-09T13:50:50;4.47;;;3.28;;
8104;SDS011;4095;48.942;9.104;2023-07-09T13:53:19;5.07;;;3.03;;
8104;SDS011;4095;48.942;9.104;2023-07-09T13:55:48;5.30;;;3.05;;
8104;SDS011;4095;48.942;9.104;2023-07-09T13:58:16;5.30;;;3.00;;
8104;SDS011;4095;48.942;9.104;2023-07-09T14:00:44;4.22;;;3.60;;
8104;SDS011;4095;48.942;9.104;2023-07-09T14:05:43;5.90;;;3.63;;
8104;SDS011;4095;48.942;9.104;2023-07-09T14:08:10;6.82;;;3.47;;
8104;SDS011;4095;48.942;9.104;2023-07-09T14:10:36;6.80;;;3.50;;
8104;SDS011;4095;48.942;9.104;2023-07-09T14:13:02;6.00;;;3.97;;
8104;SDS011;4095;48.942;9.104;2023-07-09T14:15:28;7.22;;;4.22;;
8104;SDS011;4095;48.942;9.104;2023-07-09T14:17:54;7.63;;;3.92;;
8104;SDS011;4095;48.942;9.104;2023-07-09T14:20:21;6.22;;;3.60;;
8104;SDS011;4095;48.942;9.104;2023-07-09T14:22:47;6.82;;;4.20;;
8104;SDS011;4095;48.942;9.104;2023-07-09T14:25:24;6.03;;;3.42;;
8104;SDS011;4095;48.942;9.104;2023-07-09T14:27:51;6.80;;;3.92;;
8104;SDS011;4095;48.942;9.104;2023-07-09T14:30:19;4.15;;;3.28;;
8104;SDS011;4095;48.942;9.104;2023-07-09T14:32:46;10.63;;;4.75;;
8104;SDS011;4095;48.942;9.104;2023-07-09T14:35:23;5.93;;;3.60;;
8104;SDS011;4095;48.942;9.104;2023-07-09T14:37:53;6.00;;;3.83;;
8104;SDS011;4095;48.942;9.104;2023-07-09T14:40:24;4.97;;;3.33;;
8104;SDS011;4095;48.942;9.104;2023-07-09T14:42:50;7.43;;;3.72;;
8104;SDS011;4095;48.942;9.104;2023-07-09T14:45:23;4.28;;;3.75;;
8104;SDS011;4095;48.942;9.104;2023-07-09T14:47:53;5.72;;;3.58;;
8104;SDS011;4095;48.942;9.104;2023-07-09T14:50:19;4.40;;;3.47;;
8104;SDS011;4095;48.942;9.104;2023-07-09T14:52:46;5.50;;;3.63;;
8104;SDS011;4095;48.942;9.104;2023-07-09T14:55:16;5.43;;;3.85;;
8104;SDS011;4095;48.942;9.104;2023-07-09T14:57:46;6.35;;;3.50;;
8104;SDS011;4095;48.942;9.104;2023-07-09T15:00:22;6.30;;;3.65;;
8104;SDS011;4095;48.942;9.104;2023-07-09T15:02:52;4.88;;;3.40;;
8104;SDS011;4095;48.942;9.104;2023-07-09T15:05:19;5.97;;;3.30;;
8104;SDS011;4095;48.942;9.104;2023-07-09T15:07:46;5.97;;;3.83;;
8104;SDS011;4095;48.942;9.104;2023-07-09T15:10:14;6.38;;;3.70;;
8104;SDS011;4095;48.942;9.104;2023-07-09T15:12:42;7.30;;;3.67;;
8104;SDS011;4095;48.942;9.104;2023-07-09T15:17:51;6.72;;;3.88;;
8104;SDS011;4095;48.942;9.104;2023-07-09T15:20:18;3.90;;;3.33;;
8104;SDS011;4095;48.942;9.104;2023-07-09T15:22:47;8.68;;;3.75;;
8104;SDS011;4095;48.942;9.104;2023-07-09T15:25:21;6.60;;;3.42;;
8104;SDS011;4095;48.942;9.104;2023-07-09T15:27:48;7.00;;;3.97;;
8104;SDS011;4095;48.942;9.104;2023-07-09T15:30:15;6.53;;;3.70;;
8104;SDS011;4095;48.942;9.104;2023-07-09T15:32:44;4.13;;;3.30;;
8104;SDS011;4095;48.942;9.104;2023-07-09T15:35:11;6.35;;;3.80;;
8104;SDS011;4095;48.942;9.104;2023-07-09T15:37:38;5.60;;;3.20;;
8104;SDS011;4095;48.942;9.104;2023-07-09T15:40:05;7.00;;;3.28;;
8104;SDS011;4095;48.942;9.104;2023-07-09T15:42:46;5.28;;;3.80;;
8104;SDS011;4095;48.942;9.104;2023-07-09T15:45:14;4.18;;;3.40;;
8104;SDS011;4095;48.942;9.104;2023-07-09T15:47:40;5.57;;;3.53;;
8104;SDS011;4095;48.942;9.104;2023-07-09T15:50:23;5.63;;;3.55;;
8104;SDS011;4095;48.942;9.104;2023-07-09T15:52:51;5.57;;;3.53;;
8104;SDS011;4095;48.942;9.104;2023-07-09T15:55:19;6.40;;;3.80;;
8104;SDS011;4095;48.942;9.104;2023-07-09T15:57:46;5.13;;;3.47;;
8104;SDS011;4095;48.942;9.104;2023-07-09T16:00:18;5.85;;;3.38;;
8104;SDS011;4095;48.942;9.104;2023-07-09T16:02:46;4.82;;;3.35;;
8104;SDS011;4095;48.942;9.104;2023-07-09T16:05:20;6.30;;;3.80;;
8104;SDS011;4095;48.942;9.104;2023-07-09T16:07:50;4.82;;;3.00;;
8104;SDS011;4095;48.942;9.104;2023-07-09T16:10:18;5.03;;;3.60;;
8104;SDS011;4095;48.942;9.104;2023-07-09T16:12:46;5.07;;;3.60;;